Wind From: 11-12-2017 07:30 Until: 12-12-2017 06:00 warning for: Wind Level: Orange info button

Power and phone distribution networks may be disrupted for relatively long periods., Roofs and chimneys can be damaged. , Tree branches may break. , Vehicles can be deported. , Traffic may be disrupted, particularly on secondary roads in forest areas. Limit your trips. , Limit your speed in highway driving, especially if you drive a vehicle or hitch sensitive to wind. , Do not go for walks in forests or along the coast., In town, be vigilant against possible falling objects., Do not work on roofs and do not touch any electrical line fallen on the ground., Store or secure sensitive objects to wind or likely to be damaged., Always install power generators outside buildings. 


Meteo18 Weather Cam more information Meteo18 Weather Cam


Thunder radar more information blitzortung!


Rain radar more information rain snow radar


Visit our other weather sites:

Template documentation
and downloads

And another site



Weather Underground History page Text

Daily Summary for June 20, 2017 Units:  Metric    English   Both
« Previous Day
Next Day »
Daily Weekly Monthly Yearly Custom
  High: Low: Average:
Temperature: 35.3 °C 18.9 °C 27.4 °C
Dew Point: 20.2 °C 16.4 °C 18.1 °C
Humidity: 87 % 35 % 60 %
Wind Speed: 30.6 km/h 0.0 km/h 2.8 km/h
Wind Gust: 38.6 km/h - -
Wind:- - SSW
Pressure: 1017.8 hPa 1015.1 hPa -
Precipitation: 0.0 mm    
Historical Graphs
 
 
Tabular Data for June 20, 2017
Time Temperature Dew Point Pressure Wind Wind Speed Wind Gust Humidity Rainfall Rate (Hourly)
00:02 22.9 °C 17.8 °C 1017.2 hPa Calm     73 % 0.0 mm
00:07 22.7 °C 17.8 °C 1017.2 hPa WNW 1.6 km/h 1.6 km/h 74 % 0.0 mm
00:12 22.6 °C 17.7 °C 1017.2 hPa Calm   1.6 km/h 74 % 0.0 mm
00:17 22.6 °C 17.5 °C 1017.2 hPa Calm   1.6 km/h 73 % 0.0 mm
00:27 22.6 °C 17.5 °C 1017.2 hPa Calm   1.6 km/h 73 % 0.0 mm
00:32 22.6 °C 17.5 °C 1017.2 hPa Calm   1.6 km/h 73 % 0.0 mm
00:42 22.6 °C 17.5 °C 1017.2 hPa Calm   1.6 km/h 73 % 0.0 mm
00:47 22.4 °C 17.3 °C 1017.2 hPa Calm   1.6 km/h 73 % 0.0 mm
00:52 22.2 °C 17.6 °C 1017.2 hPa Calm   1.6 km/h 75 % 0.0 mm
00:57 22.0 °C 17.4 °C 1017.2 hPa Calm   1.6 km/h 75 % 0.0 mm
01:02 21.9 °C 17.5 °C 1017.2 hPa Calm   1.6 km/h 76 % 0.0 mm
01:07 21.8 °C 17.4 °C 1017.2 hPa Calm     76 % 0.0 mm
01:12 21.6 °C 17.4 °C 1017.2 hPa Calm     77 % 0.0 mm
01:17 21.7 °C 17.5 °C 1017.2 hPa Calm     77 % 0.0 mm
01:22 21.8 °C 17.4 °C 1017.2 hPa Calm     76 % 0.0 mm
01:32 21.6 °C 17.2 °C 1017.2 hPa ENE 1.6 km/h   76 % 0.0 mm
01:37 21.2 °C 17.2 °C 1017.2 hPa Calm   6.4 km/h 78 % 0.0 mm
01:42 20.9 °C 16.9 °C 1017.2 hPa SSW 1.6 km/h 6.4 km/h 78 % 0.0 mm
01:47 20.6 °C 16.8 °C 1017.2 hPa Calm   6.4 km/h 79 % 0.0 mm
01:52 20.4 °C 17.0 °C 1017.2 hPa Calm   1.6 km/h 81 % 0.0 mm
01:57 20.3 °C 17.1 °C 1017.2 hPa Calm   1.6 km/h 82 % 0.0 mm
02:02 20.1 °C 16.9 °C 1017.2 hPa Calm   1.6 km/h 82 % 0.0 mm
02:12 20.3 °C 17.1 °C 1017.2 hPa Calm   3.2 km/h 82 % 0.0 mm
02:17 20.3 °C 16.9 °C 1017.2 hPa NNE 4.8 km/h 4.8 km/h 81 % 0.0 mm
02:27 19.9 °C 16.7 °C 1017.2 hPa North 1.6 km/h 6.4 km/h 82 % 0.0 mm
02:32 19.9 °C 16.9 °C 1017.2 hPa West 3.2 km/h 6.4 km/h 83 % 0.0 mm
02:42 20.2 °C 17.0 °C 1017.2 hPa Calm   6.4 km/h 82 % 0.0 mm
02:47 20.6 °C 17.2 °C 1017.2 hPa NNW 1.6 km/h 6.4 km/h 81 % 0.0 mm
02:52 21.0 °C 17.2 °C 1016.8 hPa NNW 3.2 km/h 3.2 km/h 79 % 0.0 mm
02:57 21.2 °C 17.2 °C 1016.8 hPa NW 4.8 km/h 4.8 km/h 78 % 0.0 mm
03:02 21.1 °C 17.1 °C 1016.8 hPa Calm   4.8 km/h 78 % 0.0 mm
03:07 20.9 °C 17.1 °C 1016.8 hPa Calm   4.8 km/h 79 % 0.0 mm
03:12 20.7 °C 16.9 °C 1016.8 hPa West 1.6 km/h 4.8 km/h 79 % 0.0 mm
03:17 20.6 °C 17.2 °C 1016.8 hPa SW 4.8 km/h 4.8 km/h 81 % 0.0 mm
03:22 20.2 °C 16.8 °C 1017.2 hPa Calm   16.1 km/h 81 % 0.0 mm
03:27 20.2 °C 16.8 °C 1017.2 hPa Calm   16.1 km/h 81 % 0.0 mm
03:32 20.2 °C 16.8 °C 1017.2 hPa SE 1.6 km/h 16.1 km/h 81 % 0.0 mm
03:42 20.2 °C 16.8 °C 1017.2 hPa Calm   3.2 km/h 81 % 0.0 mm
03:47 20.2 °C 16.8 °C 1017.2 hPa Calm   3.2 km/h 81 % 0.0 mm
03:52 20.2 °C 17.0 °C 1017.2 hPa Calm   3.2 km/h 82 % 0.0 mm
04:02 20.2 °C 16.8 °C 1017.2 hPa Calm   3.2 km/h 81 % 0.0 mm
04:07 20.0 °C 16.6 °C 1016.8 hPa Calm     81 % 0.0 mm
04:12 19.8 °C 16.6 °C 1016.8 hPa Calm     82 % 0.0 mm
04:17 19.6 °C 16.6 °C 1017.2 hPa Calm     83 % 0.0 mm
04:22 19.4 °C 16.6 °C 1016.8 hPa Calm     84 % 0.0 mm
04:32 19.4 °C 16.8 °C 1016.8 hPa Calm   1.6 km/h 85 % 0.0 mm
04:42 19.9 °C 16.9 °C 1016.8 hPa Calm   1.6 km/h 83 % 0.0 mm
04:47 20.1 °C 16.9 °C 1016.8 hPa Calm   1.6 km/h 82 % 0.0 mm
04:52 19.8 °C 16.8 °C 1016.8 hPa Calm   1.6 km/h 83 % 0.0 mm
05:02 19.8 °C 16.8 °C 1016.8 hPa Calm     83 % 0.0 mm
05:12 19.6 °C 16.8 °C 1016.8 hPa Calm     84 % 0.0 mm
05:17 19.4 °C 16.6 °C 1017.2 hPa Calm     84 % 0.0 mm
05:22 19.3 °C 16.5 °C 1017.2 hPa Calm     84 % 0.0 mm
05:32 19.1 °C 16.5 °C 1017.2 hPa Calm     85 % 0.0 mm
05:37 19.0 °C 16.6 °C 1017.2 hPa Calm   3.2 km/h 86 % 0.0 mm
05:42 19.0 °C 16.6 °C 1017.2 hPa Calm   3.2 km/h 86 % 0.0 mm
05:47 19.2 °C 16.8 °C 1017.2 hPa Calm   3.2 km/h 86 % 0.0 mm
05:52 19.3 °C 16.7 °C 1017.2 hPa Calm   3.2 km/h 85 % 0.0 mm
06:02 19.2 °C 16.6 °C 1017.2 hPa Calm   3.2 km/h 85 % 0.0 mm
06:12 19.0 °C 16.4 °C 1017.2 hPa Calm   1.6 km/h 85 % 0.0 mm
06:17 18.9 °C 16.5 °C 1017.2 hPa Calm     86 % 0.0 mm
06:22 18.9 °C 16.5 °C 1017.2 hPa Calm     86 % 0.0 mm
06:32 19.0 °C 16.8 °C 1017.2 hPa Calm   1.6 km/h 87 % 0.0 mm
06:42 19.1 °C 16.7 °C 1017.5 hPa Calm   1.6 km/h 86 % 0.0 mm
07:02 19.4 °C 16.8 °C 1017.5 hPa Calm     85 % 0.0 mm
07:12 20.2 °C 17.4 °C 1017.5 hPa Calm     84 % 0.0 mm
07:17 20.9 °C 17.9 °C 1017.5 hPa Calm     83 % 0.0 mm
07:22 21.3 °C 17.9 °C 1017.5 hPa Calm     81 % 0.0 mm
07:32 22.1 °C 18.1 °C 1017.5 hPa Calm     78 % 0.0 mm
07:42 22.4 °C 18.6 °C 1017.5 hPa Calm     79 % 0.0 mm
07:47 22.7 °C 18.5 °C 1017.5 hPa Calm     77 % 0.0 mm
07:52 22.3 °C 18.1 °C 1017.5 hPa Calm     77 % 0.0 mm
08:02 22.9 °C 18.9 °C 1017.8 hPa Calm     78 % 0.0 mm
08:07 23.4 °C 18.9 °C 1017.8 hPa Calm     76 % 0.0 mm
08:12 23.9 °C 19.0 °C 1017.8 hPa Calm     74 % 0.0 mm
08:17 24.1 °C 19.0 °C 1017.8 hPa Calm     73 % 0.0 mm
08:22 24.2 °C 19.1 °C 1017.8 hPa Calm     73 % 0.0 mm
08:32 24.8 °C 19.2 °C 1017.8 hPa Calm   3.2 km/h 71 % 0.0 mm
08:42 25.6 °C 19.3 °C 1017.8 hPa Calm   3.2 km/h 68 % 0.0 mm
08:47 25.7 °C 19.1 °C 1017.8 hPa Calm   1.6 km/h 67 % 0.0 mm
08:52 25.8 °C 19.4 °C 1017.5 hPa Calm   1.6 km/h 68 % 0.0 mm
09:02 26.6 °C 19.5 °C 1017.8 hPa SSE 3.2 km/h 3.2 km/h 65 % 0.0 mm
09:12 26.3 °C 18.9 °C 1017.8 hPa SSW 3.2 km/h 3.2 km/h 64 % 0.0 mm
09:17 26.4 °C 18.8 °C 1017.8 hPa SE 3.2 km/h 8.0 km/h 63 % 0.0 mm
09:22 26.6 °C 19.5 °C 1017.8 hPa SSW 1.6 km/h 8.0 km/h 65 % 0.0 mm
09:32 27.3 °C 19.1 °C 1017.8 hPa SW 3.2 km/h 8.0 km/h 61 % 0.0 mm
09:42 27.7 °C 19.0 °C 1017.8 hPa SW 1.6 km/h 4.8 km/h 59 % 0.0 mm
09:47 27.7 °C 19.0 °C 1017.8 hPa SSW 1.6 km/h 8.0 km/h 59 % 0.0 mm
09:52 27.8 °C 18.8 °C 1017.8 hPa WSW 3.2 km/h 8.0 km/h 58 % 0.0 mm
09:57 27.9 °C 18.9 °C 1017.5 hPa SW 3.2 km/h 8.0 km/h 58 % 0.0 mm
10:02 28.2 °C 18.6 °C 1017.8 hPa SSW 6.4 km/h 8.0 km/h 56 % 0.0 mm
10:12 28.6 °C 18.7 °C 1017.5 hPa SSW 1.6 km/h 9.7 km/h 55 % 0.0 mm
10:17 28.8 °C 18.6 °C 1017.5 hPa Calm   9.7 km/h 54 % 0.0 mm
10:22 29.2 °C 18.6 °C 1017.5 hPa ESE 3.2 km/h 9.7 km/h 53 % 0.0 mm
10:32 29.2 °C 18.9 °C 1017.5 hPa SW 6.4 km/h 6.4 km/h 54 % 0.0 mm
10:42 29.5 °C 18.6 °C 1017.8 hPa SW 1.6 km/h 8.0 km/h 52 % 0.0 mm
10:52 29.2 °C 18.6 °C 1017.8 hPa SW 3.2 km/h 9.7 km/h 53 % 0.0 mm
11:02 29.4 °C 18.5 °C 1017.8 hPa SSW 6.4 km/h 12.9 km/h 52 % 0.0 mm
11:12 29.6 °C 18.7 °C 1017.8 hPa SW 6.4 km/h 11.3 km/h 52 % 0.0 mm
11:17 29.7 °C 19.4 °C 1017.8 hPa SW 4.8 km/h 9.7 km/h 54 % 0.0 mm
11:22 29.7 °C 18.8 °C 1017.8 hPa Calm   9.7 km/h 52 % 0.0 mm
11:32 30.4 °C 19.4 °C 1017.8 hPa SW 8.0 km/h 11.3 km/h 52 % 0.0 mm
11:42 30.7 °C 19.4 °C 1017.8 hPa SSW 6.4 km/h 11.3 km/h 51 % 0.0 mm
11:47 30.6 °C 19.6 °C 1017.8 hPa WSW 8.0 km/h 11.3 km/h 52 % 0.0 mm
11:52 30.7 °C 19.4 °C 1017.8 hPa SSW 3.2 km/h 11.3 km/h 51 % 0.0 mm
12:02 31.2 °C 19.2 °C 1017.8 hPa SSW 1.6 km/h 12.9 km/h 49 % 0.0 mm
12:07 31.3 °C 19.6 °C 1017.8 hPa South 4.8 km/h 6.4 km/h 50 % 0.0 mm
12:12 31.3 °C 19.3 °C 1017.8 hPa South 1.6 km/h 6.4 km/h 49 % 0.0 mm
12:17 31.6 °C 19.2 °C 1017.8 hPa Calm   9.7 km/h 48 % 0.0 mm
12:22 31.9 °C 19.5 °C 1017.8 hPa SSW 4.8 km/h 9.7 km/h 48 % 0.0 mm
12:32 31.9 °C 19.5 °C 1017.8 hPa SE 1.6 km/h 8.0 km/h 48 % 0.0 mm
12:42 32.8 °C 19.7 °C 1017.5 hPa Calm   9.7 km/h 46 % 0.0 mm
12:47 32.4 °C 19.3 °C 1017.5 hPa South 4.8 km/h 9.7 km/h 46 % 0.0 mm
12:52 32.3 °C 18.8 °C 1017.5 hPa ESE 4.8 km/h 9.7 km/h 45 % 0.0 mm
12:57 32.2 °C 19.5 °C 1017.5 hPa South 4.8 km/h 9.7 km/h 47 % 0.0 mm
13:02 32.2 °C 19.1 °C 1017.5 hPa SSW 3.2 km/h 9.7 km/h 46 % 0.0 mm
13:12 32.4 °C 18.9 °C 1017.5 hPa ESE 1.6 km/h 11.3 km/h 45 % 0.0 mm
13:17 32.3 °C 18.8 °C 1017.5 hPa West 4.8 km/h 14.5 km/h 45 % 0.0 mm
13:22 32.3 °C 18.8 °C 1017.5 hPa West 3.2 km/h 14.5 km/h 45 % 0.0 mm
13:27 32.3 °C 18.5 °C 1017.5 hPa West 3.2 km/h 14.5 km/h 44 % 0.0 mm
13:32 32.5 °C 19.0 °C 1017.2 hPa SW 4.8 km/h 14.5 km/h 45 % 0.0 mm
13:37 32.6 °C 19.1 °C 1017.2 hPa SE 4.8 km/h 11.3 km/h 45 % 0.0 mm
13:42 32.6 °C 19.1 °C 1017.2 hPa Calm   11.3 km/h 45 % 0.0 mm
13:47 32.6 °C 18.8 °C 1017.2 hPa NNE 3.2 km/h 9.7 km/h 44 % 0.0 mm
13:52 32.8 °C 18.9 °C 1017.2 hPa SSW 3.2 km/h 9.7 km/h 44 % 0.0 mm
13:57 33.1 °C 19.9 °C 1017.2 hPa SE 1.6 km/h 12.9 km/h 46 % 0.0 mm
14:02 33.7 °C 19.4 °C 1017.2 hPa East 3.2 km/h 12.9 km/h 43 % 0.0 mm
14:12 33.3 °C 18.6 °C 1017.2 hPa West 6.4 km/h 12.9 km/h 42 % 0.0 mm
14:17 33.4 °C 19.1 °C 1017.2 hPa West 1.6 km/h 12.9 km/h 43 % 0.0 mm
14:22 33.2 °C 18.9 °C 1017.2 hPa SW 3.2 km/h 14.5 km/h 43 % 0.0 mm
14:32 33.2 °C 18.2 °C 1017.2 hPa South 9.7 km/h 14.5 km/h 41 % 0.0 mm
14:37 33.2 °C 18.9 °C 1016.8 hPa ENE 1.6 km/h 12.9 km/h 43 % 0.0 mm
14:42 33.7 °C 18.2 °C 1016.8 hPa SE 6.4 km/h 12.9 km/h 40 % 0.0 mm
14:47 33.9 °C 18.0 °C 1016.8 hPa ESE 1.6 km/h 12.9 km/h 39 % 0.0 mm
14:52 33.9 °C 18.0 °C 1016.8 hPa SW 8.0 km/h 9.7 km/h 39 % 0.0 mm
14:57 33.9 °C 17.6 °C 1016.8 hPa SSW 4.8 km/h 16.1 km/h 38 % 0.0 mm
15:02 33.8 °C 17.9 °C 1016.8 hPa SSW 6.4 km/h 16.1 km/h 39 % 0.0 mm
15:07 33.8 °C 17.5 °C 1016.8 hPa WNW 4.8 km/h 17.7 km/h 38 % 0.0 mm
15:12 33.9 °C 16.7 °C 1016.5 hPa WSW 6.4 km/h 17.7 km/h 36 % 0.0 mm
15:22 34.0 °C 17.3 °C 1016.8 hPa NNW 6.4 km/h 16.1 km/h 37 % 0.0 mm
15:32 34.1 °C 16.9 °C 1016.5 hPa Calm   16.1 km/h 36 % 0.0 mm
15:42 34.3 °C 16.6 °C 1016.5 hPa WNW 4.8 km/h 8.0 km/h 35 % 0.0 mm
15:47 34.1 °C 16.5 °C 1016.5 hPa Calm   11.3 km/h 35 % 0.0 mm
15:52 34.2 °C 17.4 °C 1016.5 hPa SSW 6.4 km/h 11.3 km/h 37 % 0.0 mm
15:57 34.4 °C 17.2 °C 1016.5 hPa WNW 4.8 km/h 16.1 km/h 36 % 0.0 mm
16:02 34.3 °C 16.6 °C 1016.5 hPa West 3.2 km/h 16.1 km/h 35 % 0.0 mm
16:12 34.2 °C 16.5 °C 1016.1 hPa NW 6.4 km/h 14.5 km/h 35 % 0.0 mm
16:22 34.5 °C 17.7 °C 1016.1 hPa SW 8.0 km/h 17.7 km/h 37 % 0.0 mm
16:32 34.4 °C 17.2 °C 1016.1 hPa West 4.8 km/h 19.3 km/h 36 % 0.0 mm
16:37 34.2 °C 17.4 °C 1016.1 hPa WSW 3.2 km/h 12.9 km/h 37 % 0.0 mm
16:42 34.3 °C 17.5 °C 1016.1 hPa West 6.4 km/h 12.9 km/h 37 % 0.0 mm
16:52 34.4 °C 17.2 °C 1016.1 hPa WNW 4.8 km/h 12.9 km/h 36 % 0.0 mm
17:02 34.1 °C 16.9 °C 1016.1 hPa SSW 4.8 km/h 12.9 km/h 36 % 0.0 mm
17:12 34.6 °C 16.9 °C 1015.8 hPa WSW 4.8 km/h 8.0 km/h 35 % 0.0 mm
17:17 34.3 °C 16.6 °C 1015.8 hPa SW 3.2 km/h 6.4 km/h 35 % 0.0 mm
17:22 34.6 °C 16.9 °C 1015.8 hPa SW 4.8 km/h 6.4 km/h 35 % 0.0 mm
17:32 35.3 °C 17.5 °C 1015.8 hPa North 8.0 km/h 8.0 km/h 35 % 0.0 mm
17:37 34.8 °C 17.5 °C 1015.8 hPa NNW 3.2 km/h 11.3 km/h 36 % 0.0 mm
17:42 34.9 °C 17.2 °C 1015.8 hPa West 6.4 km/h 11.3 km/h 35 % 0.0 mm
17:52 34.8 °C 17.5 °C 1015.5 hPa NW 6.4 km/h 14.5 km/h 36 % 0.0 mm
17:57 34.7 °C 17.4 °C 1015.5 hPa NNE 4.8 km/h 14.5 km/h 36 % 0.0 mm
18:02 34.6 °C 17.3 °C 1015.5 hPa WNW 3.2 km/h 14.5 km/h 36 % 0.0 mm
18:07 34.4 °C 16.7 °C 1015.5 hPa WNW 1.6 km/h 12.9 km/h 35 % 0.0 mm
18:12 34.4 °C 17.2 °C 1015.5 hPa NW 4.8 km/h 12.9 km/h 36 % 0.0 mm
18:17 34.2 °C 16.5 °C 1015.5 hPa West 4.8 km/h 12.9 km/h 35 % 0.0 mm
18:22 34.0 °C 16.8 °C 1015.5 hPa NNW 3.2 km/h 12.9 km/h 36 % 0.0 mm
18:27 33.9 °C 16.7 °C 1015.5 hPa NW 1.6 km/h 12.9 km/h 36 % 0.0 mm
18:32 33.8 °C 17.1 °C 1015.5 hPa WNW 1.6 km/h 9.7 km/h 37 % 0.0 mm
18:37 33.8 °C 17.5 °C 1015.5 hPa WNW 4.8 km/h 9.7 km/h 38 % 0.0 mm
18:42 33.6 °C 17.3 °C 1015.5 hPa WNW 3.2 km/h 6.4 km/h 38 % 0.0 mm
18:47 33.4 °C 17.1 °C 1015.5 hPa NW 3.2 km/h 8.0 km/h 38 % 0.0 mm
18:52 33.2 °C 17.4 °C 1015.1 hPa WNW 3.2 km/h 8.0 km/h 39 % 0.0 mm
18:57 33.1 °C 18.1 °C 1015.1 hPa Calm   8.0 km/h 41 % 0.0 mm
19:02 33.1 °C 18.5 °C 1015.5 hPa Calm   8.0 km/h 42 % 0.0 mm
19:12 32.8 °C 17.8 °C 1015.1 hPa WNW 1.6 km/h 4.8 km/h 41 % 0.0 mm
19:17 32.8 °C 18.6 °C 1015.1 hPa Calm   4.8 km/h 43 % 0.0 mm
19:22 32.7 °C 18.1 °C 1015.1 hPa Calm   4.8 km/h 42 % 0.0 mm
19:32 32.5 °C 18.7 °C 1015.5 hPa WNW 3.2 km/h 4.8 km/h 44 % 0.0 mm
19:42 32.2 °C 19.1 °C 1015.5 hPa Calm   4.8 km/h 46 % 0.0 mm
19:47 32.0 °C 18.6 °C 1015.5 hPa Calm   3.2 km/h 45 % 0.0 mm
19:57 32.1 °C 19.4 °C 1015.5 hPa Calm   1.6 km/h 47 % 0.0 mm
20:02 31.6 °C 20.2 °C 1015.5 hPa Calm   1.6 km/h 51 % 0.0 mm
20:07 31.2 °C 19.2 °C 1015.5 hPa Calm   1.6 km/h 49 % 0.0 mm
20:12 31.2 °C 19.2 °C 1015.5 hPa Calm   1.6 km/h 49 % 0.0 mm
20:17 31.2 °C 19.2 °C 1015.5 hPa Calm   1.6 km/h 49 % 0.0 mm
20:22 31.1 °C 20.1 °C 1015.8 hPa Calm     52 % 0.0 mm
20:32 30.8 °C 19.8 °C 1015.8 hPa Calm     52 % 0.0 mm
20:42 30.7 °C 19.7 °C 1015.8 hPa Calm     52 % 0.0 mm
20:47 30.6 °C 19.0 °C 1015.8 hPa Calm     50 % 0.0 mm
20:52 30.7 °C 20.0 °C 1015.8 hPa Calm     53 % 0.0 mm
21:02 30.6 °C 19.6 °C 1015.8 hPa Calm     52 % 0.0 mm
21:12 29.8 °C 19.8 °C 1015.8 hPa NE 1.6 km/h 4.8 km/h 55 % 0.0 mm
21:17 29.6 °C 19.0 °C 1015.5 hPa ENE 3.2 km/h 4.8 km/h 53 % 0.0 mm
21:22 29.9 °C 19.0 °C 1015.8 hPa NE 3.2 km/h 8.0 km/h 52 % 0.0 mm
21:27 29.7 °C 19.1 °C 1015.8 hPa East 6.4 km/h 8.0 km/h 53 % 0.0 mm
21:32 29.7 °C 18.8 °C 1015.5 hPa NE 3.2 km/h 8.0 km/h 52 % 0.0 mm
21:42 29.4 °C 19.1 °C 1015.8 hPa NNE 1.6 km/h 6.4 km/h 54 % 0.0 mm
21:52 29.2 °C 19.2 °C 1015.8 hPa NE 3.2 km/h 4.8 km/h 55 % 0.0 mm
21:57 29.2 °C 19.2 °C 1015.8 hPa NE 1.6 km/h 4.8 km/h 55 % 0.0 mm
22:02 29.0 °C 19.3 °C 1016.1 hPa ENE 1.6 km/h 4.8 km/h 56 % 0.0 mm
22:07 28.7 °C 19.3 °C 1016.1 hPa NE 3.2 km/h 4.8 km/h 57 % 0.0 mm
22:17 28.3 °C 19.8 °C 1016.1 hPa Calm   4.8 km/h 60 % 0.0 mm
22:22 27.9 °C 19.4 °C 1016.1 hPa WNW 1.6 km/h 3.2 km/h 60 % 0.0 mm
22:27 27.8 °C 19.3 °C 1015.8 hPa Calm   1.6 km/h 60 % 0.0 mm
22:32 27.8 °C 19.3 °C 1015.8 hPa Calm   1.6 km/h 60 % 0.0 mm
22:37 27.8 °C 19.3 °C 1015.8 hPa NNE 3.2 km/h 3.2 km/h 60 % 0.0 mm
22:42 28.0 °C 19.5 °C 1016.1 hPa Calm   3.2 km/h 60 % 0.0 mm
22:47 27.9 °C 19.7 °C 1016.1 hPa Calm   3.2 km/h 61 % 0.0 mm
22:52 27.7 °C 19.5 °C 1016.5 hPa Calm   3.2 km/h 61 % 0.0 mm
22:57 27.1 °C 20.0 °C 1017.2 hPa SW 29.0 km/h 29.0 km/h 65 % 0.0 mm
23:07 24.3 °C 19.1 °C 1017.5 hPa WSW 30.6 km/h 37.0 km/h 73 % 0.0 mm
23:12 23.6 °C 18.9 °C 1017.8 hPa WSW 20.9 km/h 38.6 km/h 75 % 0.0 mm
23:17 23.3 °C 18.8 °C 1017.8 hPa SW 19.3 km/h 38.6 km/h 76 % 0.0 mm
23:22 23.3 °C 18.8 °C 1017.8 hPa WSW 30.6 km/h 38.6 km/h 76 % 0.0 mm
23:27 22.6 °C 18.6 °C 1017.8 hPa West 12.9 km/h 37.0 km/h 78 % 0.0 mm
23:32 22.2 °C 18.6 °C 1017.5 hPa West 16.1 km/h 37.0 km/h 80 % 0.0 mm
23:37 22.4 °C 18.2 °C 1017.2 hPa WNW 9.7 km/h 37.0 km/h 77 % 0.0 mm
23:42 22.7 °C 18.5 °C 1017.2 hPa WNW 12.9 km/h 29.0 km/h 77 % 0.0 mm
23:52 22.7 °C 18.7 °C 1016.8 hPa West 8.0 km/h 20.9 km/h 78 % 0.0 mm
Meteo18
Compliments of Weather Underground - 4 mb

Script developed by  Jim McMurry - jmcmurry@mwt.net Adapted for the template by  Wim van der Kuil - Leuven-Template.eu

You find our weather info also at:

European Weather Network

Weather Underground

Equipment we use:

Weather-station
Davis Vue

Weather-program
Meteohub

Weather-server
Raspberry PI 2 B+

Provider
1 and 1

Davis Vue

Meteohub

Raspberry PI 2 B+

1 and 1